CANO2: Clear Boggy Creek abv Caney Creek nr Caney, OK

                                SHEF ID:       CANO2     Clear Boggy Creek abv Caney Cree
STATION TYPE:
Regulating: Stage = 19.00, Flow = 2600

STAGE RIV-FLOW VOLTAGE BAT-LOAD
ft cfs volt volt
Ccp-Rev Ccp-Rev Ccp-Rev Ccp-Rev
(America/Chicago)
04/28 00:00 14.87 1160 12.67 ----
04/28 01:00 14.76 1120 12.68 ----
04/28 02:00 14.65 1090 12.67 ----
04/28 03:00 14.54 1050 12.66 ----
04/28 04:00 14.45 1020 12.66 ----
04/28 05:00 14.38 1000 12.65 ----
04/28 06:00 14.27 968 12.64 ----
04/28 07:00 14.19 943 12.63 ----
04/28 08:00 14.11 918 12.67 ----
04/28 09:00 14.02 887 12.82 ----
04/28 10:00 13.96 868 12.73 ----
04/28 11:00 13.87 841 12.68 ----
04/28 12:00 13.81 823 13.53 ----
04/28 13:00 13.72 797 13.69 ----
04/28 14:00 13.65 777 13.66 ----
04/28 15:00 13.57 754 13.24 ----
04/28 16:00 13.65 777 12.99 ----
04/28 17:00 13.67 782 13.49 ----
04/28 18:00 13.80 820 13.44 ----
04/28 19:00 14.02 887 13.19 ----
04/28 20:00 14.96 1190 12.97 ----
04/28 21:00 16.95 1870 12.82 ----
04/28 22:00 18.86 2550 12.73 ----
04/28 23:00 ---- ---- ---- ----
Data processed at Wed 29Apr2026 04:01 GMT

NOTICE: If you are parsing this page

Please convert to using our Data API. Starting early 2026 we will be migrating to: https://water.usace.army.mil with modern pages rendered in JavaScript. When this migration completes you will no longer be able to scrape this page! CWMSDataAPI (CDA)

Timeseries IDs (TSIDs)

TSIDs used from left to right in the data table
CANE.Stage.Inst.1Hour.0.Ccp-Rev
CANE.Flow.Inst.1Hour.0.Ccp-Rev
CANE.Volt-Battery.Inst.1Hour.0.Ccp-Rev
CANE.Volt-Battery Load.Inst.1Hour.0.Ccp-Rev

                            

All information presented herein is the property of the government of the United States of America and may be revised or deleted at any time without prior notice. Dissemination of this information without the expressed written consent of the Public Affairs Office, Tulsa District U.S. Army Corps of Engineers is strictly prohibited. These data are gathered electronically and, as presented, have NOT undergone any form of quality control. These data are NOT guaranteed to be valid or correct.